Time;durP1;ratioP1;P1;durP2;ratioP2;P2;SDS_P1;SDS_P2;PMS_P1;PMS_P2;Temp;Humidity;BMP_temperature;BMP_pressure;BME280_temperature;BME280_humidity;BME280_pressure;Samples;Min_cycle;Max_cycle;Signal;HPM_P1;HPM_P2
2022/11/05 00:10:06;;;;;;;4.45;1.85;;;6.80;99.90;;;;;;5044814;28;20110;-77
2022/11/05 00:18:01;;;;;;;3.63;1.60;;;6.80;99.90;;;;;;5045012;28;20470;-76
2022/11/05 00:20:26;;;;;;;2.85;0.80;;;6.80;99.90;;;;;;5043231;28;20045;-77
2022/11/05 00:25:52;;;;;;;2.80;1.73;;;6.80;99.90;;;;;;5044917;28;20052;-76
2022/11/05 00:28:18;;;;;;;1.98;1.45;;;6.80;99.90;;;;;;5045238;28;20403;-77
2022/11/05 00:30:44;;;;;;;1.13;0.82;;;6.70;99.90;;;;;;5043948;28;20064;-77
2022/11/05 00:33:09;;;;;;;1.15;1.00;;;6.70;99.90;;;;;;5043341;28;20041;-77
2022/11/05 00:35:35;;;;;;;2.10;1.05;;;6.80;99.90;;;;;;5044764;28;20045;-76
2022/11/05 00:38:00;;;;;;;2.10;1.23;;;6.70;99.90;;;;;;5043146;28;20048;-77
2022/11/05 00:40:26;;;;;;;5.38;2.50;;;6.70;99.90;;;;;;5044038;28;20045;-76
2022/11/05 00:45:36;;;;;;;2.65;0.90;;;6.70;99.90;;;;;;5043820;28;20087;-76
2022/11/05 00:50:46;;;;;;;2.38;1.00;;;6.70;99.90;;;;;;5045388;28;20049;-76
2022/11/05 00:53:12;;;;;;;2.03;0.95;;;6.60;99.90;;;;;;5043983;28;20040;-76
2022/11/05 00:55:44;;;;;;;0.98;0.90;;;6.60;99.90;;;;;;5043171;28;20052;-77
2022/11/05 00:58:18;;;;;;;1.38;1.08;;;6.60;99.90;;;;;;5044161;28;20041;-76
2022/11/05 01:00:55;;;;;;;1.52;1.25;;;6.60;99.90;;;;;;5042156;28;20147;-76
2022/11/05 01:03:23;;;;;;;4.82;1.58;;;6.60;99.90;;;;;;5043135;28;20055;-77
2022/11/05 01:05:55;;;;;;;0.60;0.60;;;6.50;99.90;;;;;;5044021;28;20056;-76
2022/11/05 01:08:22;;;;;;;4.95;1.67;;;6.60;99.90;;;;;;5006822;28;20104;-77
2022/11/05 01:10:50;;;;;;;4.45;1.42;;;6.60;99.90;;;;;;5026229;28;20045;-76
2022/11/05 01:13:19;;;;;;;1.85;1.50;;;6.60;99.90;;;;;;5015672;28;20056;-76
2022/11/05 01:15:45;;;;;;;5.28;1.30;;;6.60;99.90;;;;;;5047643;28;20045;-76
2022/11/05 01:18:11;;;;;;;1.55;1.33;;;6.60;99.90;;;;;;5046868;28;20049;-76
2022/11/05 01:20:37;;;;;;;0.77;0.75;;;6.60;99.90;;;;;;5046960;28;20380;-76
2022/11/05 01:23:02;;;;;;;1.65;0.90;;;6.60;99.90;;;;;;5048236;28;20097;-76
2022/11/05 01:25:28;;;;;;;4.00;1.30;;;6.60;99.90;;;;;;5046943;28;20127;-76
2022/11/05 01:27:54;;;;;;;1.50;1.05;;;6.60;99.90;;;;;;5047090;28;20041;-76
2022/11/05 01:30:19;;;;;;;1.17;1.15;;;6.60;99.90;;;;;;5046614;28;20045;-77
2022/11/05 01:32:45;;;;;;;1.50;1.33;;;6.60;99.90;;;;;;5047487;28;20490;-76
2022/11/05 01:35:16;;;;;;;2.55;1.23;;;6.60;99.90;;;;;;5046805;28;20087;-76
2022/11/05 01:37:42;;;;;;;1.38;0.98;;;6.60;99.90;;;;;;5046993;28;20045;-76
2022/11/05 01:40:11;;;;;;;5.28;1.25;;;6.70;99.90;;;;;;5029885;28;20048;-76
2022/11/05 01:42:37;;;;;;;1.48;0.98;;;6.70;99.90;;;;;;5047839;28;20515;-76
2022/11/05 01:45:05;;;;;;;2.63;1.20;;;6.70;99.90;;;;;;5045732;28;20052;-77
2022/11/05 01:47:35;;;;;;;1.10;1.00;;;6.70;99.90;;;;;;5047115;28;20080;-76
2022/11/05 01:50:20;;;;;;;4.00;2.63;;;6.70;99.90;;;;;;5063150;28;20045;-76
2022/11/05 01:52:48;;;;;;;3.65;1.67;;;6.80;99.90;;;;;;5046495;28;20147;-76
2022/11/05 01:55:18;;;;;;;1.58;1.02;;;6.80;99.90;;;;;;5047051;28;20052;-76
2022/11/05 01:57:44;;;;;;;3.38;1.13;;;6.80;99.90;;;;;;5046496;28;20045;-76
2022/11/05 02:00:10;;;;;;;3.35;1.80;;;6.90;99.90;;;;;;5046285;28;20071;-77
2022/11/05 02:02:36;;;;;;;1.52;1.42;;;6.90;99.90;;;;;;5046460;28;20080;-76
2022/11/05 02:05:05;;;;;;;1.85;1.10;;;6.90;99.90;;;;;;5047749;28;20084;-77
2022/11/05 02:07:32;;;;;;;1.05;0.95;;;6.90;99.90;;;;;;5047863;28;20052;-76
2022/11/05 02:10:08;;;;;;;1.60;1.23;;;6.90;99.90;;;;;;5047467;28;20052;-76
2022/11/05 02:12:37;;;;;;;1.30;1.20;;;6.90;99.90;;;;;;5047791;28;20076;-76
2022/11/05 02:15:03;;;;;;;1.83;1.65;;;6.90;99.90;;;;;;5046328;28;20098;-77
2022/11/05 02:17:41;;;;;;;2.83;1.67;;;6.90;99.90;;;;;;5046139;28;20083;-76
2022/11/05 02:20:35;;;;;;;1.58;1.08;;;6.90;99.90;;;;;;5027336;28;20046;-76
2022/11/05 02:23:33;;;;;;;0.85;0.80;;;7.00;99.90;;;;;;5025590;28;20406;-77
2022/11/05 02:26:17;;;;;;;1.42;1.30;;;7.00;99.90;;;;;;5037523;28;20145;-77
2022/11/05 02:29:07;;;;;;;5.55;1.23;;;7.00;99.90;;;;;;5046273;28;20044;-76
2022/11/05 02:31:46;;;;;;;8.45;1.25;;;7.10;99.90;;;;;;5028707;28;20045;-76
2022/11/05 02:34:48;;;;;;;0.95;0.52;;;7.10;99.90;;;;;;5046772;28;20096;-76
2022/11/05 02:37:43;;;;;;;2.23;1.17;;;7.10;99.90;;;;;;5046649;28;20036;-76
2022/11/05 02:40:15;;;;;;;0.45;0.45;;;7.20;99.90;;;;;;5045818;28;21456;-78
2022/11/05 02:43:24;;;;;;;2.25;1.42;;;7.20;99.90;;;;;;5046823;28;20037;-76
2022/11/05 02:46:19;;;;;;;3.63;1.10;;;7.30;99.90;;;;;;5044852;28;20060;-78
2022/11/05 02:48:52;;;;;;;5.63;1.10;;;7.40;99.90;;;;;;5029039;28;20061;-76
2022/11/05 02:51:51;;;;;;;1.52;0.80;;;7.40;99.90;;;;;;5062058;28;20048;-76
2022/11/05 02:54:22;;;;;;;5.22;0.98;;;7.40;99.90;;;;;;5027986;28;20052;-76
2022/11/05 02:56:51;;;;;;;1.05;0.60;;;7.50;99.90;;;;;;5045510;28;20114;-76
2022/11/05 02:59:17;;;;;;;0.73;0.38;;;7.50;99.90;;;;;;5045378;28;20059;-76
2022/11/05 03:01:45;;;;;;;2.08;0.70;;;7.50;99.90;;;;;;5059300;28;20704;-76
2022/11/05 03:04:13;;;;;;;2.65;1.55;;;7.50;99.90;;;;;;5045559;28;20449;-76
2022/11/05 03:06:50;;;;;;;18.08;1.63;;;7.60;99.90;;;;;;5045718;28;20072;-76
2022/11/05 03:09:34;;;;;;;1.60;0.70;;;7.60;99.90;;;;;;5045370;28;20045;-76
2022/11/05 03:12:05;;;;;;;1.13;0.57;;;7.60;99.90;;;;;;5044245;28;20492;-77
2022/11/05 03:14:50;;;;;;;1.33;0.28;;;7.60;99.90;;;;;;5045373;28;20087;-77
2022/11/05 03:17:24;;;;;;;1.75;1.35;;;7.70;99.90;;;;;;5045428;28;20037;-76
2022/11/05 03:19:58;;;;;;;1.88;0.68;;;7.70;99.90;;;;;;5044793;28;20041;-77
2022/11/05 03:22:33;;;;;;;3.08;0.70;;;7.70;99.90;;;;;;5046088;28;20484;-76
2022/11/05 03:25:05;;;;;;;4.88;1.63;;;7.70;99.90;;;;;;5060807;28;20128;-77
2022/11/05 03:27:36;;;;;;;1.88;0.85;;;7.70;99.90;;;;;;5045938;28;20041;-77
2022/11/05 03:30:08;;;;;;;2.58;0.70;;;7.70;99.90;;;;;;5045057;28;20135;-76
2022/11/05 03:32:41;;;;;;;2.05;1.05;;;7.80;99.90;;;;;;5046017;28;20064;-76
2022/11/05 03:35:13;;;;;;;3.15;1.85;;;7.80;99.90;;;;;;5044698;28;20037;-77
2022/11/05 03:37:42;;;;;;;2.93;0.90;;;7.80;99.90;;;;;;5044630;28;20480;-76
2022/11/05 03:40:09;;;;;;;1.95;1.23;;;7.80;99.90;;;;;;5044022;28;20814;-76
2022/11/05 03:42:37;;;;;;;1.27;0.85;;;7.80;99.90;;;;;;5045290;28;20088;-76
2022/11/05 03:45:09;;;;;;;1.35;0.82;;;7.80;99.90;;;;;;5044421;28;20053;-76
2022/11/05 03:47:41;;;;;;;1.45;1.02;;;7.80;99.90;;;;;;5045764;28;20048;-77
2022/11/05 03:50:36;;;;;;;1.40;0.70;;;7.80;99.90;;;;;;5045559;28;20083;-76
2022/11/05 03:53:23;;;;;;;2.55;1.35;;;7.80;99.90;;;;;;5043965;28;20136;-76
2022/11/05 03:56:07;;;;;;;1.40;0.70;;;7.80;99.90;;;;;;5046149;28;20041;-76
2022/11/05 03:58:34;;;;;;;3.28;1.63;;;7.90;99.90;;;;;;5061038;28;20036;-77
2022/11/05 04:01:01;;;;;;;1.67;1.02;;;7.90;99.90;;;;;;5043188;28;20033;-77
2022/11/05 04:03:27;;;;;;;2.38;0.93;;;7.90;99.90;;;;;;5044727;28;20410;-77
2022/11/05 04:14:13;;;;;;;3.08;1.13;;;8.00;99.90;;;;;;5044675;28;20056;-76
2022/11/05 04:24:52;;;;;;;1.75;0.90;;;8.10;99.90;;;;;;5044627;28;20045;-77
2022/11/05 04:27:17;;;;;;;5.70;2.65;;;8.10;99.90;;;;;;5060539;28;20441;-77
2022/11/05 04:32:27;;;;;;;3.25;2.05;;;8.10;99.90;;;;;;5043725;28;20060;-76
2022/11/05 04:34:52;;;;;;;1.40;1.10;;;8.10;99.90;;;;;;5043260;28;20458;-77
2022/11/05 04:37:18;;;;;;;5.45;1.88;;;8.10;99.90;;;;;;5060746;28;20614;-76
2022/11/05 04:39:44;;;;;;;9.65;1.42;;;8.10;99.90;;;;;;5043174;28;20052;-77
2022/11/05 04:42:09;;;;;;;2.20;1.67;;;8.10;99.90;;;;;;5044772;28;20044;-76
2022/11/05 04:44:35;;;;;;;2.03;1.75;;;8.10;99.90;;;;;;5044005;28;20048;-76
2022/11/05 04:47:00;;;;;;;0.98;0.80;;;8.10;99.90;;;;;;5042993;28;20130;-76
2022/11/05 04:49:26;;;;;;;1.63;1.50;;;8.10;99.90;;;;;;5044866;28;20052;-76
2022/11/05 04:51:51;;;;;;;8.82;2.58;;;8.10;99.90;;;;;;5060018;28;20049;-76
2022/11/05 04:54:17;;;;;;;5.53;2.10;;;8.20;99.90;;;;;;5043271;28;20041;-76
2022/11/05 04:56:44;;;;;;;3.28;1.95;;;8.10;99.90;;;;;;5043510;28;20068;-77
2022/11/05 04:59:09;;;;;;;1.27;1.17;;;8.20;99.90;;;;;;5044155;28;20084;-76
2022/11/05 05:01:35;;;;;;;1.85;1.30;;;8.20;99.90;;;;;;5043865;28;20115;-76
2022/11/05 05:04:00;;;;;;;1.88;1.25;;;8.20;99.90;;;;;;5044172;28;20053;-76
2022/11/05 05:06:26;;;;;;;1.63;0.73;;;8.20;99.90;;;;;;5043377;28;20045;-77
2022/11/05 05:08:52;;;;;;;2.53;1.85;;;8.20;99.90;;;;;;5044309;28;20092;-77
2022/11/05 05:11:19;;;;;;;1.58;1.17;;;8.30;99.90;;;;;;5045181;28;20045;-76
2022/11/05 05:13:46;;;;;;;0.90;0.82;;;8.20;99.90;;;;;;5043661;28;20145;-76
2022/11/05 05:16:19;;;;;;;3.08;0.73;;;8.20;99.90;;;;;;5042337;28;20658;-76
2022/11/05 05:18:45;;;;;;;6.80;1.67;;;8.20;99.90;;;;;;5027129;28;20033;-76
2022/11/05 05:23:54;;;;;;;2.03;0.70;;;8.20;99.90;;;;;;5044281;28;20446;-77
2022/11/05 05:26:20;;;;;;;1.95;0.90;;;8.20;99.90;;;;;;5044489;28;20041;-77
2022/11/05 05:28:45;;;;;;;1.05;0.80;;;8.20;99.90;;;;;;5043572;28;20048;-78
2022/11/05 05:31:11;;;;;;;2.38;1.23;;;8.20;99.90;;;;;;5042616;28;20490;-77
2022/11/05 05:33:37;;;;;;;1.65;1.25;;;8.20;99.90;;;;;;5043860;28;20392;-76
2022/11/05 05:36:02;;;;;;;1.60;1.25;;;8.10;99.90;;;;;;5042593;28;20045;-76
2022/11/05 05:38:28;;;;;;;1.98;1.00;;;8.10;99.90;;;;;;5042941;28;20051;-76
2022/11/05 05:40:59;;;;;;;1.90;1.52;;;8.10;99.90;;;;;;5043594;28;20076;-77
2022/11/05 05:43:33;;;;;;;0.93;0.90;;;8.10;99.90;;;;;;5042933;28;20116;-77
2022/11/05 05:46:07;;;;;;;1.65;0.98;;;8.00;99.90;;;;;;5025098;28;20076;-77
2022/11/05 05:48:33;;;;;;;1.90;0.80;;;8.00;99.90;;;;;;5043104;28;20049;-76
2022/11/05 05:51:04;;;;;;;1.95;1.05;;;8.00;99.90;;;;;;5043799;28;20095;-76
2022/11/05 05:53:30;;;;;;;2.03;0.70;;;8.00;99.90;;;;;;5043574;28;20038;-77
2022/11/05 05:55:57;;;;;;;1.75;1.15;;;8.00;99.90;;;;;;5043855;28;20084;-77
2022/11/05 05:58:25;;;;;;;1.52;1.42;;;8.00;99.90;;;;;;5044590;28;20090;-77
2022/11/05 06:00:52;;;;;;;1.60;0.85;;;7.90;99.90;;;;;;5045209;28;20414;-77
2022/11/05 06:03:17;;;;;;;1.98;1.77;;;7.90;99.90;;;;;;5057747;28;20195;-76
2022/11/05 06:05:43;;;;;;;2.55;1.20;;;7.90;99.90;;;;;;5036834;28;20545;-76
2022/11/05 06:08:09;;;;;;;1.73;1.05;;;7.90;99.90;;;;;;5046174;28;20144;-76
2022/11/05 06:10:34;;;;;;;9.52;1.48;;;7.90;99.90;;;;;;5046290;28;20447;-76
2022/11/05 06:13:00;;;;;;;2.15;1.27;;;7.90;99.90;;;;;;5045776;28;20037;-76
2022/11/05 06:15:26;;;;;;;4.47;2.08;;;7.90;99.90;;;;;;5046424;28;20048;-76
2022/11/05 06:17:51;;;;;;;1.33;1.23;;;7.90;99.90;;;;;;5029367;28;20048;-77
2022/11/05 06:20:17;;;;;;;1.55;1.38;;;7.90;99.90;;;;;;5048144;28;20040;-76
2022/11/05 06:22:42;;;;;;;3.65;1.30;;;7.90;99.90;;;;;;5047590;28;20124;-76
2022/11/05 06:25:09;;;;;;;4.18;2.22;;;7.90;99.90;;;;;;5046981;28;20045;-76
2022/11/05 06:27:37;;;;;;;1.42;1.30;;;7.90;99.90;;;;;;5047156;28;20044;-76
2022/11/05 06:30:04;;;;;;;1.35;1.23;;;7.90;99.90;;;;;;5045909;28;20052;-76
2022/11/05 06:32:30;;;;;;;1.58;1.38;;;7.90;99.90;;;;;;5047127;28;20045;-76
2022/11/05 06:34:56;;;;;;;2.42;1.60;;;7.90;99.90;;;;;;5029027;28;20041;-77
2022/11/05 06:37:21;;;;;;;2.80;1.40;;;7.90;99.90;;;;;;5029244;28;20310;-77
2022/11/05 06:39:47;;;;;;;1.00;0.82;;;7.90;99.90;;;;;;5047816;28;20045;-76
2022/11/05 06:42:12;;;;;;;1.52;1.42;;;7.90;99.90;;;;;;5061710;28;20306;-77
2022/11/05 06:44:45;;;;;;;2.15;1.67;;;7.90;99.90;;;;;;5044814;28;20476;-77
2022/11/05 06:47:11;;;;;;;3.55;1.95;;;7.90;99.90;;;;;;5061645;28;20048;-76
2022/11/05 06:49:36;;;;;;;2.05;1.38;;;7.90;99.90;;;;;;5046930;28;20049;-77
2022/11/05 06:52:02;;;;;;;3.35;1.17;;;7.90;99.90;;;;;;5045231;28;20045;-76
2022/11/05 06:54:27;;;;;;;4.40;1.75;;;7.90;99.90;;;;;;5045240;28;20085;-76
2022/11/05 06:56:53;;;;;;;2.67;1.67;;;7.90;99.90;;;;;;5028516;28;20067;-76
2022/11/05 06:59:19;;;;;;;3.00;1.85;;;7.90;99.90;;;;;;5045019;28;20052;-77
2022/11/05 07:01:45;;;;;;;2.03;1.67;;;7.90;99.90;;;;;;5045716;28;20049;-77
2022/11/05 07:04:11;;;;;;;1.95;1.40;;;7.90;99.90;;;;;;5046178;28;20044;-76
2022/11/05 07:06:37;;;;;;;1.98;1.83;;;7.90;99.90;;;;;;5046352;28;20047;-76
2022/11/05 07:09:02;;;;;;;3.80;2.28;;;7.90;99.90;;;;;;5045720;28;20053;-76
2022/11/05 07:11:28;;;;;;;2.28;1.65;;;7.90;99.90;;;;;;5046304;28;20041;-76
2022/11/05 07:13:53;;;;;;;2.45;1.85;;;8.00;99.90;;;;;;5045709;28;20068;-77
2022/11/05 07:16:19;;;;;;;2.00;1.80;;;8.00;99.90;;;;;;5044384;28;20051;-76
2022/11/05 07:18:44;;;;;;;2.28;1.48;;;8.10;99.90;;;;;;5061691;28;20036;-77
2022/11/05 07:21:10;;;;;;;4.28;1.75;;;8.10;99.90;;;;;;5061126;28;20098;-76
2022/11/05 07:23:36;;;;;;;2.28;1.55;;;8.10;99.90;;;;;;5061105;28;20175;-76
2022/11/05 07:26:01;;;;;;;7.07;1.50;;;8.10;99.90;;;;;;5045785;28;20060;-77
2022/11/05 07:28:27;;;;;;;4.88;2.42;;;8.20;99.90;;;;;;5045690;28;20052;-76
2022/11/05 07:30:53;;;;;;;3.05;1.52;;;8.20;99.90;;;;;;5043223;28;20041;-76
2022/11/05 07:33:18;;;;;;;2.72;2.35;;;8.30;99.90;;;;;;5046117;28;20082;-76
2022/11/05 07:35:44;;;;;;;9.75;3.50;;;8.30;99.90;;;;;;5045427;28;20041;-76
2022/11/05 07:38:10;;;;;;;3.90;2.88;;;8.30;99.90;;;;;;5044314;28;20044;-77
2022/11/05 07:40:35;;;;;;;3.67;2.17;;;8.30;99.90;;;;;;5045394;28;20068;-78
2022/11/05 07:43:01;;;;;;;2.00;1.65;;;8.30;99.90;;;;;;5043585;28;20032;-77
2022/11/05 07:45:29;;;;;;;4.20;1.45;;;8.40;99.90;;;;;;5029665;28;20049;-79
2022/11/05 07:47:57;;;;;;;5.90;1.80;;;8.40;99.90;;;;;;5042617;28;20479;-77
2022/11/05 07:50:24;;;;;;;3.55;1.67;;;8.50;99.90;;;;;;5044116;28;20037;-78
2022/11/05 07:52:50;;;;;;;2.22;2.03;;;8.50;99.90;;;;;;5042390;28;20136;-78
2022/11/05 07:55:17;;;;;;;5.53;2.17;;;8.60;99.90;;;;;;5027219;28;20842;-77
2022/11/05 07:57:45;;;;;;;2.88;1.95;;;8.60;99.90;;;;;;5044648;28;20509;-77
2022/11/05 08:00:14;;;;;;;4.05;1.58;;;8.70;99.90;;;;;;5042412;28;20037;-78
2022/11/05 08:02:40;;;;;;;3.83;2.00;;;8.70;99.90;;;;;;5021000;28;20546;-78
2022/11/05 08:05:07;;;;;;;2.53;1.80;;;8.70;99.90;;;;;;5044942;28;20128;-77
2022/11/05 08:07:32;;;;;;;7.88;3.17;;;8.70;99.90;;;;;;5055384;28;20420;-78
2022/11/05 08:09:58;;;;;;;4.78;2.83;;;8.80;99.90;;;;;;5043280;28;20124;-78
2022/11/05 08:12:24;;;;;;;3.92;3.28;;;8.80;99.90;;;;;;5045425;28;20037;-79
2022/11/05 08:14:50;;;;;;;2.35;2.17;;;8.80;99.90;;;;;;5042590;28;20072;-80
2022/11/05 08:17:16;;;;;;;5.30;3.13;;;8.80;99.90;;;;;;5043069;28;20037;-77
2022/11/05 08:19:42;;;;;;;7.75;2.53;;;8.90;99.90;;;;;;5042972;28;20055;-77
2022/11/05 08:22:07;;;;;;;2.65;2.42;;;8.90;99.90;;;;;;5043362;28;20068;-78
2022/11/05 08:24:33;;;;;;;3.92;3.10;;;8.90;99.90;;;;;;5043335;28;20095;-78
2022/11/05 08:26:58;;;;;;;4.30;2.90;;;8.90;99.90;;;;;;5043733;28;20102;-78
2022/11/05 08:29:24;;;;;;;6.65;2.95;;;8.90;99.90;;;;;;5042339;28;20125;-79
2022/11/05 08:31:50;;;;;;;3.33;2.15;;;8.90;99.90;;;;;;5043514;28;20055;-78
2022/11/05 08:34:16;;;;;;;9.20;3.00;;;8.90;99.90;;;;;;5044394;28;20040;-79
2022/11/05 08:36:45;;;;;;;2.53;2.15;;;8.90;99.90;;;;;;5044726;28;20049;-78
2022/11/05 08:39:11;;;;;;;4.43;2.42;;;8.90;99.90;;;;;;5043119;28;20037;-79
2022/11/05 08:41:39;;;;;;;3.13;2.53;;;8.90;99.90;;;;;;5053332;28;20561;-78
2022/11/05 08:44:07;;;;;;;2.72;2.08;;;8.90;99.90;;;;;;5042577;28;20033;-78
2022/11/05 08:46:35;;;;;;;2.60;1.83;;;8.90;99.90;;;;;;5042125;28;20055;-78
2022/11/05 08:49:00;;;;;;;3.42;2.30;;;8.90;99.90;;;;;;5041798;28;20941;-79
2022/11/05 08:51:26;;;;;;;10.20;2.50;;;8.90;99.90;;;;;;5043624;28;20048;-79
2022/11/05 08:53:52;;;;;;;5.50;2.70;;;8.90;99.90;;;;;;5042315;28;20037;-79
2022/11/05 08:56:17;;;;;;;3.30;2.67;;;9.00;99.90;;;;;;5044394;28;20045;-78
2022/11/05 08:58:43;;;;;;;3.88;2.17;;;9.00;99.90;;;;;;5044078;28;20037;-80
2022/11/05 09:01:08;;;;;;;3.30;2.33;;;9.00;99.90;;;;;;5043017;28;20033;-76
2022/11/05 09:03:34;;;;;;;6.30;3.38;;;9.10;99.90;;;;;;5043013;28;20095;-77
2022/11/05 09:06:00;;;;;;;6.13;3.22;;;9.10;99.90;;;;;;5044012;28;20037;-76
2022/11/05 09:08:25;;;;;;;6.57;3.22;;;9.20;99.90;;;;;;5041656;28;20098;-79
2022/11/05 09:10:51;;;;;;;5.20;2.40;;;9.30;99.90;;;;;;5043374;28;20037;-77
2022/11/05 09:13:17;;;;;;;3.35;1.90;;;9.40;99.90;;;;;;5042756;28;20106;-77
2022/11/05 09:15:43;;;;;;;6.75;3.60;;;9.40;99.90;;;;;;5042182;28;20482;-77
2022/11/05 09:18:12;;;;;;;5.15;3.67;;;9.50;99.90;;;;;;5043654;28;20037;-77
2022/11/05 09:20:39;;;;;;;4.40;2.65;;;9.50;99.90;;;;;;5043849;28;20507;-78
2022/11/05 09:23:05;;;;;;;8.65;3.78;;;9.50;99.90;;;;;;5043080;28;20148;-76
2022/11/05 09:25:32;;;;;;;3.88;2.20;;;9.50;99.90;;;;;;5043488;28;20056;-75
2022/11/05 09:28:12;;;;;;;4.13;2.50;;;9.50;99.90;;;;;;5042902;28;20539;-74
2022/11/05 09:30:49;;;;;;;5.38;3.30;;;9.60;99.90;;;;;;5043313;28;20045;-77
2022/11/05 09:33:17;;;;;;;4.13;2.88;;;9.70;99.90;;;;;;5044462;28;20064;-75
2022/11/05 09:35:43;;;;;;;4.00;2.40;;;9.70;99.90;;;;;;5046949;28;20045;-75
2022/11/05 09:38:09;;;;;;;2.50;2.03;;;9.80;99.90;;;;;;5045930;28;20624;-79
2022/11/05 09:41:01;;;;;;;5.03;3.50;;;9.80;99.90;;;;;;5046847;28;20127;-77
2022/11/05 09:43:33;;;;;;;3.70;2.25;;;9.90;99.90;;;;;;5044611;28;20081;-75
2022/11/05 09:46:08;;;;;;;4.13;2.78;;;10.00;99.90;;;;;;5047830;28;20096;-77
2022/11/05 09:48:35;;;;;;;4.35;2.17;;;10.00;99.90;;;;;;5048706;28;20048;-79
2022/11/05 09:51:02;;;;;;;3.15;2.03;;;10.00;99.90;;;;;;5047459;28;20037;-78
2022/11/05 09:53:28;;;;;;;2.92;2.30;;;10.00;99.90;;;;;;5048603;28;20194;-78
2022/11/05 09:55:57;;;;;;;4.57;1.75;;;10.10;99.90;;;;;;5048793;28;20534;-75
2022/11/05 09:58:39;;;;;;;5.53;2.47;;;10.10;99.90;;;;;;5047727;28;20044;-79
2022/11/05 10:01:12;;;;;;;4.90;2.30;;;10.20;99.90;;;;;;5047053;28;20439;-77
2022/11/05 10:03:44;;;;;;;3.92;2.13;;;10.20;99.90;;;;;;5047300;28;20444;-81
2022/11/05 10:06:17;;;;;;;3.17;2.45;;;10.20;99.90;;;;;;5047964;28;20037;-82
2022/11/05 10:08:46;;;;;;;2.17;2.03;;;10.20;99.90;;;;;;5047438;28;20380;-78
2022/11/05 10:11:17;;;;;;;2.38;1.50;;;10.30;99.90;;;;;;5046809;28;20037;-78
2022/11/05 10:13:51;;;;;;;16.35;2.92;;;10.30;99.90;;;;;;5044686;28;20037;-80
2022/11/05 10:16:22;;;;;;;6.97;2.35;;;10.30;99.90;;;;;;5047770;28;20041;-78
2022/11/05 10:19:15;;;;;;;2.33;1.43;;;10.30;99.90;;;;;;5045893;28;21317;-79
2022/11/05 10:21:41;;;;;;;;;;;10.40;99.90;;;;;;5038259;28;20052;-77
2022/11/05 10:24:17;;;;;;;9.38;1.80;;;10.50;99.90;;;;;;5040348;28;19917;-80
2022/11/05 10:26:49;;;;;;;3.92;1.90;;;10.50;99.90;;;;;;5046480;28;20402;-77
2022/11/05 10:29:19;;;;;;;;;;;10.60;99.90;;;;;;5044987;28;20029;-78
2022/11/05 10:31:45;;;;;;;9.32;3.00;;;10.70;99.90;;;;;;5047338;28;20326;-80
2022/11/05 10:34:12;;;;;;;2.80;2.05;;;10.70;99.90;;;;;;5046201;28;20055;-78
2022/11/05 10:36:38;;;;;;;4.05;1.65;;;10.70;99.90;;;;;;5044558;28;20142;-80
2022/11/05 10:39:13;;;;;;;10.95;1.67;;;10.70;99.90;;;;;;5042524;28;20073;-78
2022/11/05 10:42:19;;;;;;;2.38;2.17;;;10.80;99.90;;;;;;5045105;28;20051;-80
2022/11/05 10:45:09;;;;;;;2.55;2.28;;;10.80;99.90;;;;;;5039480;28;20045;-79
2022/11/05 10:48:04;;;;;;;2.08;1.88;;;10.80;99.90;;;;;;5025130;28;20136;-80
2022/11/05 10:50:30;;;;;;;7.30;2.53;;;10.90;99.90;;;;;;5059873;28;20056;-79
2022/11/05 10:53:01;;;;;;;1.52;1.42;;;10.80;99.90;;;;;;5044544;28;20055;-78
2022/11/05 10:55:34;;;;;;;3.03;1.70;;;10.90;99.90;;;;;;5042859;28;20060;-78
2022/11/05 10:58:27;;;;;;;;;;;10.90;99.90;;;;;;5046780;28;20279;-78
2022/11/05 11:00:53;;;;;;;2.63;2.00;;;10.90;99.90;;;;;;5040239;28;20330;-78
2022/11/05 11:03:33;;;;;;;2.08;1.35;;;10.90;99.90;;;;;;5045840;28;20049;-77
2022/11/05 11:06:01;;;;;;;5.47;2.10;;;10.90;99.90;;;;;;5044455;28;20045;-78
2022/11/05 11:08:28;;;;;;;4.93;2.45;;;10.90;99.90;;;;;;5044261;28;20499;-77
2022/11/05 11:10:57;;;;;;;1.60;1.10;;;10.90;99.90;;;;;;5045712;28;20048;-77
2022/11/05 11:13:45;;;;;;;2.45;1.58;;;10.90;99.90;;;;;;5046096;28;20137;-81
2022/11/05 11:16:19;;;;;;;8.45;1.80;;;10.90;99.90;;;;;;5016354;28;20046;-78
2022/11/05 11:18:45;;;;;;;4.60;2.08;;;10.90;99.90;;;;;;5040842;28;20033;-81
2022/11/05 11:21:12;;;;;;;2.80;1.65;;;11.00;99.90;;;;;;5043434;28;20518;-77
2022/11/05 11:23:39;;;;;;;2.00;1.55;;;10.90;99.90;;;;;;5044826;28;20033;-80
2022/11/05 11:26:06;;;;;;;1.40;0.90;;;11.00;99.90;;;;;;5045881;28;20377;-80
2022/11/05 11:28:46;;;;;;;4.15;1.63;;;10.90;99.90;;;;;;5037659;28;20045;-80
2022/11/05 11:31:23;;;;;;;1.83;1.30;;;10.90;99.90;;;;;;5045845;28;20075;-78
2022/11/05 11:34:03;;;;;;;5.53;1.83;;;11.00;99.90;;;;;;5055243;28;20051;-79
2022/11/05 11:36:35;;;;;;;2.67;1.88;;;10.90;99.90;;;;;;5046505;28;20045;-78
2022/11/05 11:39:03;;;;;;;1.80;0.93;;;11.00;99.90;;;;;;5040779;28;20071;-78
2022/11/05 11:41:41;;;;;;;1.45;1.35;;;10.90;99.90;;;;;;5045244;28;20060;-78
2022/11/05 11:44:17;;;;;;;2.05;1.13;;;10.90;99.90;;;;;;5045321;28;20410;-78
2022/11/05 11:46:47;;;;;;;0.95;0.90;;;10.80;99.90;;;;;;5046052;28;20036;-77
2022/11/05 11:49:32;;;;;;;1.50;0.77;;;10.80;99.90;;;;;;5031580;28;20040;-79
2022/11/05 11:52:11;;;;;;;1.42;0.77;;;10.80;99.90;;;;;;5043286;28;20044;-79
2022/11/05 11:54:37;;;;;;;0.85;0.82;;;10.80;99.90;;;;;;5045233;28;20505;-78
2022/11/05 11:57:23;;;;;;;2.85;0.75;;;10.70;99.90;;;;;;5044877;28;20049;-78
2022/11/05 11:59:49;;;;;;;1.48;0.75;;;10.70;99.90;;;;;;5045573;28;20444;-78
2022/11/05 12:02:33;;;;;;;1.33;1.00;;;10.70;99.90;;;;;;5045359;28;20526;-78
2022/11/05 12:05:17;;;;;;;2.22;1.00;;;10.70;99.90;;;;;;5044540;28;20059;-79
2022/11/05 12:07:53;;;;;;;1.98;0.85;;;10.70;99.90;;;;;;5045206;28;20110;-78
2022/11/05 12:10:26;;;;;;;2.83;1.13;;;10.70;99.90;;;;;;5045106;28;20115;-78
2022/11/05 12:12:52;;;;;;;0.65;0.50;;;10.70;99.90;;;;;;5023456;28;20080;-78
2022/11/05 12:15:48;;;;;;;2.13;1.02;;;10.70;99.90;;;;;;5042435;28;20083;-76
2022/11/05 12:18:46;;;;;;;1.90;1.23;;;10.70;99.90;;;;;;5044901;28;20163;-74
2022/11/05 12:21:35;;;;;;;3.03;1.20;;;10.70;99.90;;;;;;5041033;28;20126;-77
2022/11/05 12:24:37;;;;;;;2.55;1.20;;;10.70;99.90;;;;;;5043900;28;20622;-76
2022/11/05 12:27:36;;;;;;;1.73;1.17;;;10.70;99.90;;;;;;5042659;28;20071;-79
2022/11/05 12:30:18;;;;;;;1.58;1.35;;;10.70;99.90;;;;;;5026600;28;20060;-80
2022/11/05 12:33:08;;;;;;;14.32;1.77;;;10.70;99.90;;;;;;5045336;28;20049;-83
2022/11/05 12:36:01;;;;;;;3.55;1.88;;;10.70;99.90;;;;;;5045799;28;20445;-78
2022/11/05 12:38:51;;;;;;;3.85;1.85;;;10.70;99.90;;;;;;5023663;28;20050;-79
2022/11/05 12:41:28;;;;;;;4.28;1.80;;;10.60;99.90;;;;;;5030612;28;20040;-79
2022/11/05 12:44:24;;;;;;;3.90;2.00;;;10.70;99.90;;;;;;5043954;28;20037;-80
2022/11/05 12:47:35;;;;;;;2.25;1.58;;;10.70;99.90;;;;;;5043898;28;20088;-77
2022/11/05 12:50:21;;;;;;;2.47;1.65;;;10.70;99.90;;;;;;5042169;28;20427;-76
2022/11/05 12:52:58;;;;;;;3.05;2.40;;;10.70;99.90;;;;;;5033615;28;20104;-77
2022/11/05 12:55:27;;;;;;;7.07;4.53;;;10.70;99.90;;;;;;5059263;28;20060;-78
2022/11/05 12:57:57;;;;;;;4.90;2.65;;;10.70;99.90;;;;;;5044558;28;20487;-78
2022/11/05 13:00:25;;;;;;;2.83;2.15;;;10.80;99.90;;;;;;5032898;28;20079;-76
2022/11/05 13:03:29;;;;;;;5.22;2.65;;;10.80;99.90;;;;;;5043361;28;20052;-78
2022/11/05 13:06:09;;;;;;;2.70;2.10;;;10.90;99.90;;;;;;5056659;28;20073;-77
2022/11/05 13:08:55;;;;;;;3.88;2.35;;;10.90;99.90;;;;;;5042467;28;20558;-77
2022/11/05 13:11:31;;;;;;;3.67;2.30;;;11.00;99.90;;;;;;5025592;28;20043;-78
2022/11/05 13:14:12;;;;;;;7.10;3.95;;;11.00;99.90;;;;;;5040530;28;20126;-77
2022/11/05 13:16:42;;;;;;;4.10;2.75;;;11.00;99.90;;;;;;5042511;28;20066;-77
2022/11/05 13:19:17;;;;;;;4.60;2.70;;;11.00;99.90;;;;;;5042861;28;20037;-77
2022/11/05 13:21:48;;;;;;;4.18;2.90;;;11.10;99.90;;;;;;5043836;28;20048;-78
2022/11/05 13:24:25;;;;;;;5.20;2.60;;;11.10;99.90;;;;;;5038975;28;20127;-78
2022/11/05 13:27:17;;;;;;;5.15;2.00;;;11.10;99.90;;;;;;5040885;28;20056;-79
2022/11/05 13:29:58;;;;;;;3.47;2.28;;;11.10;99.90;;;;;;5033294;28;20053;-78
2022/11/05 13:32:36;;;;;;;2.72;1.83;;;11.10;99.90;;;;;;5055545;28;20076;-78
2022/11/05 13:35:06;;;;;;;4.88;2.60;;;11.10;99.90;;;;;;5042213;28;20041;-77
2022/11/05 13:40:34;;;;;;;5.18;2.60;;;11.10;99.90;;;;;;5042773;28;20136;-78
2022/11/05 13:43:35;;;;;;;5.05;3.10;;;11.10;99.90;;;;;;5042100;28;20099;-77
2022/11/05 13:46:23;;;;;;;3.88;1.92;;;11.10;99.90;;;;;;5040761;28;20076;-78
2022/11/05 13:49:15;;;;;;;2.58;1.92;;;11.10;99.90;;;;;;5040233;28;20049;-78
2022/11/05 13:52:13;;;;;;;3.38;1.95;;;11.10;99.90;;;;;;5041258;28;20056;-77
2022/11/05 13:55:11;;;;;;;3.38;2.22;;;11.10;99.90;;;;;;5041940;28;20064;-77
2022/11/05 13:57:58;;;;;;;3.45;3.00;;;11.10;99.90;;;;;;5041340;28;20045;-78
2022/11/05 14:00:28;;;;;;;6.28;1.98;;;11.10;99.90;;;;;;5024037;28;20443;-78
2022/11/05 14:02:55;;;;;;;2.33;1.92;;;11.10;99.90;;;;;;5040416;28;20029;-77
2022/11/05 14:05:28;;;;;;;5.25;2.17;;;11.10;99.90;;;;;;5041799;28;20407;-77
2022/11/05 14:07:55;;;;;;;5.07;2.25;;;11.10;99.90;;;;;;5026553;28;20080;-76